sensor_id;sensor_type;location;lat;lon;timestamp;pressure;altitude;pressure_sealevel;temperature;humidity
36092;BME280;22147;52.388;13.390;2024-01-25T00:00:43;100797.31;;;5.65;100.00
36092;BME280;22147;52.388;13.390;2024-01-25T00:03:11;100806.09;;;5.67;100.00
36092;BME280;22147;52.388;13.390;2024-01-25T00:05:40;100802.06;;;5.59;100.00
36092;BME280;22147;52.388;13.390;2024-01-25T00:08:08;100821.28;;;5.64;100.00
36092;BME280;22147;52.388;13.390;2024-01-25T00:10:37;100819.84;;;5.72;100.00
36092;BME280;22147;52.388;13.390;2024-01-25T00:13:05;100822.31;;;5.74;100.00
36092;BME280;22147;52.388;13.390;2024-01-25T00:15:34;100822.06;;;5.70;100.00
36092;BME280;22147;52.388;13.390;2024-01-25T00:18:02;100826.44;;;5.71;100.00
36092;BME280;22147;52.388;13.390;2024-01-25T00:20:30;100824.81;;;5.70;100.00
36092;BME280;22147;52.388;13.390;2024-01-25T00:22:59;100819.31;;;5.70;100.00
36092;BME280;22147;52.388;13.390;2024-01-25T00:25:27;100818.25;;;5.66;100.00
36092;BME280;22147;52.388;13.390;2024-01-25T00:27:56;100836.09;;;5.74;100.00
36092;BME280;22147;52.388;13.390;2024-01-25T00:30:24;100834.81;;;5.61;100.00
36092;BME280;22147;52.388;13.390;2024-01-25T00:32:53;100829.56;;;5.64;100.00
36092;BME280;22147;52.388;13.390;2024-01-25T00:35:21;100839.66;;;5.74;100.00
36092;BME280;22147;52.388;13.390;2024-01-25T00:37:50;100833.34;;;5.74;100.00
36092;BME280;22147;52.388;13.390;2024-01-25T00:40:18;100825.56;;;5.76;100.00
36092;BME280;22147;52.388;13.390;2024-01-25T00:42:47;100829.53;;;5.69;100.00
36092;BME280;22147;52.388;13.390;2024-01-25T00:45:24;100854.78;;;5.77;100.00
36092;BME280;22147;52.388;13.390;2024-01-25T00:47:54;100836.66;;;5.70;100.00
36092;BME280;22147;52.388;13.390;2024-01-25T00:50:25;100849.88;;;5.74;100.00
36092;BME280;22147;52.388;13.390;2024-01-25T00:52:57;100852.72;;;5.87;100.00
36092;BME280;22147;52.388;13.390;2024-01-25T00:55:27;100857.63;;;5.71;100.00
36092;BME280;22147;52.388;13.390;2024-01-25T00:57:58;100861.28;;;5.86;100.00
36092;BME280;22147;52.388;13.390;2024-01-25T01:00:30;100864.75;;;5.72;100.00
36092;BME280;22147;52.388;13.390;2024-01-25T01:03:03;100863.94;;;5.72;100.00
36092;BME280;22147;52.388;13.390;2024-01-25T01:05:35;100870.25;;;5.72;100.00
36092;BME280;22147;52.388;13.390;2024-01-25T01:08:06;100872.94;;;5.78;100.00
36092;BME280;22147;52.388;13.390;2024-01-25T01:10:36;100869.44;;;5.72;100.00
36092;BME280;22147;52.388;13.390;2024-01-25T01:13:06;100863.59;;;5.79;100.00
36092;BME280;22147;52.388;13.390;2024-01-25T01:15:35;100853.78;;;5.67;100.00
36092;BME280;22147;52.388;13.390;2024-01-25T01:18:03;100869.72;;;5.70;100.00
36092;BME280;22147;52.388;13.390;2024-01-25T01:20:37;100871.19;;;5.63;100.00
36092;BME280;22147;52.388;13.390;2024-01-25T01:23:06;100866.44;;;5.68;100.00
36092;BME280;22147;52.388;13.390;2024-01-25T01:25:34;100863.34;;;5.75;100.00
36092;BME280;22147;52.388;13.390;2024-01-25T01:28:03;100857.38;;;5.68;100.00
36092;BME280;22147;52.388;13.390;2024-01-25T01:30:31;100870.09;;;5.64;100.00
36092;BME280;22147;52.388;13.390;2024-01-25T01:32:59;100852.25;;;5.56;100.00
36092;BME280;22147;52.388;13.390;2024-01-25T01:35:28;100857.72;;;5.61;100.00
36092;BME280;22147;52.388;13.390;2024-01-25T01:37:56;100867.59;;;5.62;100.00
36092;BME280;22147;52.388;13.390;2024-01-25T01:40:25;100860.69;;;5.65;100.00
36092;BME280;22147;52.388;13.390;2024-01-25T01:43:03;100868.66;;;5.66;100.00
36092;BME280;22147;52.388;13.390;2024-01-25T01:45:33;100884.66;;;5.64;100.00
36092;BME280;22147;52.388;13.390;2024-01-25T01:48:04;100888.84;;;5.62;100.00
36092;BME280;22147;52.388;13.390;2024-01-25T01:50:35;100884.03;;;5.72;100.00
36092;BME280;22147;52.388;13.390;2024-01-25T01:53:06;100885.81;;;5.63;100.00
36092;BME280;22147;52.388;13.390;2024-01-25T01:55:39;100874.28;;;5.56;100.00
36092;BME280;22147;52.388;13.390;2024-01-25T01:58:11;100893.75;;;5.65;100.00
36092;BME280;22147;52.388;13.390;2024-01-25T02:00:44;100892.16;;;5.59;100.00
36092;BME280;22147;52.388;13.390;2024-01-25T02:03:15;100894.63;;;5.60;100.00
36092;BME280;22147;52.388;13.390;2024-01-25T02:05:46;100893.81;;;5.60;100.00
36092;BME280;22147;52.388;13.390;2024-01-25T02:08:16;100905.00;;;5.44;100.00
36092;BME280;22147;52.388;13.390;2024-01-25T02:10:47;100904.06;;;5.54;100.00
36092;BME280;22147;52.388;13.390;2024-01-25T02:13:17;100908.69;;;5.59;100.00
36092;BME280;22147;52.388;13.390;2024-01-25T02:15:48;100918.38;;;5.56;100.00
36092;BME280;22147;52.388;13.390;2024-01-25T02:18:19;100905.66;;;5.60;99.91
36092;BME280;22147;52.388;13.390;2024-01-25T02:20:50;100909.75;;;5.63;100.00
36092;BME280;22147;52.388;13.390;2024-01-25T02:23:20;100896.28;;;5.61;99.72
36092;BME280;22147;52.388;13.390;2024-01-25T02:25:49;100914.41;;;5.67;99.43
36092;BME280;22147;52.388;13.390;2024-01-25T02:28:17;100908.13;;;5.62;100.00
36092;BME280;22147;52.388;13.390;2024-01-25T02:30:46;100915.13;;;5.49;100.00
36092;BME280;22147;52.388;13.390;2024-01-25T02:33:14;100880.19;;;5.44;100.00
36092;BME280;22147;52.388;13.390;2024-01-25T02:35:42;100896.13;;;5.47;100.00
36092;BME280;22147;52.388;13.390;2024-01-25T02:38:11;100898.63;;;5.44;100.00
36092;BME280;22147;52.388;13.390;2024-01-25T02:40:40;100902.16;;;5.55;100.00
36092;BME280;22147;52.388;13.390;2024-01-25T02:43:08;100895.78;;;5.54;100.00
36092;BME280;22147;52.388;13.390;2024-01-25T02:45:36;100897.16;;;5.57;100.00
36092;BME280;22147;52.388;13.390;2024-01-25T02:48:05;100890.59;;;5.53;99.98
36092;BME280;22147;52.388;13.390;2024-01-25T02:50:35;100887.88;;;5.47;100.00
36092;BME280;22147;52.388;13.390;2024-01-25T02:53:03;100895.94;;;5.39;100.00
36092;BME280;22147;52.388;13.390;2024-01-25T02:55:31;100895.31;;;5.47;100.00
36092;BME280;22147;52.388;13.390;2024-01-25T02:57:59;100898.31;;;5.50;100.00
36092;BME280;22147;52.388;13.390;2024-01-25T03:00:28;100896.13;;;5.47;100.00
36092;BME280;22147;52.388;13.390;2024-01-25T03:02:56;100899.75;;;5.43;100.00
36092;BME280;22147;52.388;13.390;2024-01-25T03:05:25;100890.19;;;5.35;100.00
36092;BME280;22147;52.388;13.390;2024-01-25T03:07:53;100914.75;;;5.32;100.00
36092;BME280;22147;52.388;13.390;2024-01-25T03:10:21;100910.78;;;5.43;100.00
36092;BME280;22147;52.388;13.390;2024-01-25T03:12:50;100921.53;;;5.39;100.00
36092;BME280;22147;52.388;13.390;2024-01-25T03:15:18;100916.28;;;5.43;100.00
36092;BME280;22147;52.388;13.390;2024-01-25T03:17:47;100916.09;;;5.34;100.00
36092;BME280;22147;52.388;13.390;2024-01-25T03:20:15;100928.75;;;5.35;100.00
36092;BME280;22147;52.388;13.390;2024-01-25T03:22:43;100933.22;;;5.26;100.00
36092;BME280;22147;52.388;13.390;2024-01-25T03:25:12;100931.00;;;5.28;100.00
36092;BME280;22147;52.388;13.390;2024-01-25T03:27:40;100953.91;;;5.23;100.00
36092;BME280;22147;52.388;13.390;2024-01-25T03:30:10;100943.97;;;5.27;100.00
36092;BME280;22147;52.388;13.390;2024-01-25T03:32:40;100948.88;;;5.36;100.00
36092;BME280;22147;52.388;13.390;2024-01-25T03:35:08;100963.78;;;5.29;100.00
36092;BME280;22147;52.388;13.390;2024-01-25T03:37:37;100943.16;;;5.22;100.00
36092;BME280;22147;52.388;13.390;2024-01-25T03:40:07;100935.44;;;5.24;100.00
36092;BME280;22147;52.388;13.390;2024-01-25T03:42:41;100940.69;;;5.20;100.00
36092;BME280;22147;52.388;13.390;2024-01-25T03:45:19;100948.41;;;5.18;100.00
36092;BME280;22147;52.388;13.390;2024-01-25T03:47:49;100941.75;;;5.24;100.00
36092;BME280;22147;52.388;13.390;2024-01-25T03:50:20;100963.59;;;5.16;100.00
36092;BME280;22147;52.388;13.390;2024-01-25T03:52:50;100949.50;;;5.22;100.00
36092;BME280;22147;52.388;13.390;2024-01-25T03:55:20;100936.53;;;5.28;100.00
36092;BME280;22147;52.388;13.390;2024-01-25T03:57:51;100932.41;;;5.25;100.00
36092;BME280;22147;52.388;13.390;2024-01-25T04:00:21;100934.97;;;5.17;100.00
36092;BME280;22147;52.388;13.390;2024-01-25T04:02:52;100926.50;;;5.08;100.00
36092;BME280;22147;52.388;13.390;2024-01-25T04:05:23;100927.00;;;5.10;100.00
36092;BME280;22147;52.388;13.390;2024-01-25T04:07:53;100940.69;;;5.20;100.00
36092;BME280;22147;52.388;13.390;2024-01-25T04:10:23;100936.59;;;5.18;100.00
36092;BME280;22147;52.388;13.390;2024-01-25T04:12:54;100946.03;;;5.06;100.00
36092;BME280;22147;52.388;13.390;2024-01-25T04:15:25;100950.72;;;5.06;100.00
36092;BME280;22147;52.388;13.390;2024-01-25T04:17:53;100950.50;;;4.97;100.00
36092;BME280;22147;52.388;13.390;2024-01-25T04:20:25;100949.00;;;5.15;99.80
36092;BME280;22147;52.388;13.390;2024-01-25T04:22:53;100950.94;;;5.15;100.00
36092;BME280;22147;52.388;13.390;2024-01-25T04:25:23;100969.47;;;5.04;100.00
36092;BME280;22147;52.388;13.390;2024-01-25T04:27:54;100972.72;;;5.11;99.73
36092;BME280;22147;52.388;13.390;2024-01-25T04:30:24;100970.22;;;5.15;100.00
36092;BME280;22147;52.388;13.390;2024-01-25T04:32:54;100980.47;;;5.04;100.00
36092;BME280;22147;52.388;13.390;2024-01-25T04:35:25;100986.22;;;5.07;100.00
36092;BME280;22147;52.388;13.390;2024-01-25T04:37:55;100983.44;;;5.13;99.88
36092;BME280;22147;52.388;13.390;2024-01-25T04:40:26;100993.66;;;5.07;100.00
36092;BME280;22147;52.388;13.390;2024-01-25T04:42:56;100983.97;;;5.15;100.00
36092;BME280;22147;52.388;13.390;2024-01-25T04:45:26;100976.66;;;5.00;100.00
36092;BME280;22147;52.388;13.390;2024-01-25T04:47:57;100981.56;;;5.03;100.00
36092;BME280;22147;52.388;13.390;2024-01-25T04:50:27;100990.63;;;5.08;100.00
36092;BME280;22147;52.388;13.390;2024-01-25T04:52:58;100985.72;;;5.00;100.00
36092;BME280;22147;52.388;13.390;2024-01-25T04:55:31;100991.44;;;5.09;100.00
36092;BME280;22147;52.388;13.390;2024-01-25T04:58:01;101006.06;;;4.99;100.00
36092;BME280;22147;52.388;13.390;2024-01-25T05:00:31;101002.22;;;5.00;100.00
36092;BME280;22147;52.388;13.390;2024-01-25T05:03:02;101002.72;;;5.13;100.00
36092;BME280;22147;52.388;13.390;2024-01-25T05:05:30;101003.88;;;5.01;100.00
36092;BME280;22147;52.388;13.390;2024-01-25T05:07:58;101007.75;;;5.00;100.00
36092;BME280;22147;52.388;13.390;2024-01-25T05:10:27;101016.31;;;4.94;100.00
36092;BME280;22147;52.388;13.390;2024-01-25T05:12:55;101034.72;;;4.93;100.00
36092;BME280;22147;52.388;13.390;2024-01-25T05:15:24;101042.97;;;4.98;100.00
36092;BME280;22147;52.388;13.390;2024-01-25T05:17:52;101033.59;;;5.04;100.00
36092;BME280;22147;52.388;13.390;2024-01-25T05:20:21;101039.09;;;5.04;100.00
36092;BME280;22147;52.388;13.390;2024-01-25T05:22:50;101041.06;;;4.99;100.00
36092;BME280;22147;52.388;13.390;2024-01-25T05:25:18;101041.09;;;4.94;100.00
36092;BME280;22147;52.388;13.390;2024-01-25T05:27:47;101038.88;;;4.96;100.00
36092;BME280;22147;52.388;13.390;2024-01-25T05:30:15;101056.22;;;4.96;100.00
36092;BME280;22147;52.388;13.390;2024-01-25T05:32:44;101066.13;;;4.92;100.00
36092;BME280;22147;52.388;13.390;2024-01-25T05:35:16;101065.81;;;4.99;100.00
36092;BME280;22147;52.388;13.390;2024-01-25T05:37:47;101086.75;;;4.95;100.00
36092;BME280;22147;52.388;13.390;2024-01-25T05:40:18;101073.50;;;5.07;100.00
36092;BME280;22147;52.388;13.390;2024-01-25T05:42:49;101077.06;;;5.07;100.00
36092;BME280;22147;52.388;13.390;2024-01-25T05:45:19;101083.16;;;4.99;100.00
36092;BME280;22147;52.388;13.390;2024-01-25T05:47:51;101090.34;;;4.90;100.00
36092;BME280;22147;52.388;13.390;2024-01-25T05:50:21;101094.25;;;4.79;100.00
36092;BME280;22147;52.388;13.390;2024-01-25T05:52:52;101085.97;;;4.89;100.00
36092;BME280;22147;52.388;13.390;2024-01-25T05:55:22;101090.06;;;4.97;100.00
36092;BME280;22147;52.388;13.390;2024-01-25T05:57:52;101108.22;;;4.93;100.00
36092;BME280;22147;52.388;13.390;2024-01-25T06:00:23;101103.56;;;4.88;100.00
36092;BME280;22147;52.388;13.390;2024-01-25T06:02:52;101104.13;;;4.90;100.00
36092;BME280;22147;52.388;13.390;2024-01-25T06:05:22;101100.00;;;4.87;100.00
36092;BME280;22147;52.388;13.390;2024-01-25T06:07:50;101096.41;;;4.92;100.00
36092;BME280;22147;52.388;13.390;2024-01-25T06:10:21;101099.16;;;4.92;100.00
36092;BME280;22147;52.388;13.390;2024-01-25T06:12:51;101100.00;;;4.82;100.00
36092;BME280;22147;52.388;13.390;2024-01-25T06:15:21;101110.16;;;4.92;100.00
36092;BME280;22147;52.388;13.390;2024-01-25T06:17:51;101116.22;;;4.94;100.00
36092;BME280;22147;52.388;13.390;2024-01-25T06:20:22;101116.75;;;4.96;100.00
36092;BME280;22147;52.388;13.390;2024-01-25T06:22:53;101118.69;;;4.96;100.00
36092;BME280;22147;52.388;13.390;2024-01-25T06:25:23;101123.66;;;4.88;100.00
36092;BME280;22147;52.388;13.390;2024-01-25T06:27:53;101133.03;;;4.82;100.00
36092;BME280;22147;52.388;13.390;2024-01-25T06:30:23;101135.75;;;4.93;100.00
36092;BME280;22147;52.388;13.390;2024-01-25T06:32:53;101133.56;;;5.00;100.00
36092;BME280;22147;52.388;13.390;2024-01-25T06:35:23;101146.53;;;4.89;100.00
36092;BME280;22147;52.388;13.390;2024-01-25T06:37:53;101141.28;;;4.82;100.00
36092;BME280;22147;52.388;13.390;2024-01-25T06:40:23;101148.47;;;4.83;100.00
36092;BME280;22147;52.388;13.390;2024-01-25T06:42:54;101153.69;;;4.85;100.00
36092;BME280;22147;52.388;13.390;2024-01-25T06:45:23;101151.22;;;4.83;100.00
36092;BME280;22147;52.388;13.390;2024-01-25T06:47:53;101139.34;;;4.88;100.00
36092;BME280;22147;52.388;13.390;2024-01-25T06:50:22;101151.50;;;4.87;100.00
36092;BME280;22147;52.388;13.390;2024-01-25T06:52:50;101156.16;;;4.92;100.00
36092;BME280;22147;52.388;13.390;2024-01-25T06:55:22;101156.41;;;4.95;100.00
36092;BME280;22147;52.388;13.390;2024-01-25T06:57:50;101167.94;;;4.97;100.00
36092;BME280;22147;52.388;13.390;2024-01-25T07:00:19;101182.56;;;4.93;100.00
36092;BME280;22147;52.388;13.390;2024-01-25T07:02:50;101177.59;;;4.95;100.00
36092;BME280;22147;52.388;13.390;2024-01-25T07:05:19;101193.03;;;4.90;100.00
36092;BME280;22147;52.388;13.390;2024-01-25T07:07:47;101197.44;;;4.92;100.00
36092;BME280;22147;52.388;13.390;2024-01-25T07:10:15;101197.72;;;4.80;100.00
36092;BME280;22147;52.388;13.390;2024-01-25T07:12:44;101206.53;;;4.87;100.00
36092;BME280;22147;52.388;13.390;2024-01-25T07:15:12;101203.78;;;4.82;100.00
36092;BME280;22147;52.388;13.390;2024-01-25T07:17:40;101197.16;;;4.88;100.00
36092;BME280;22147;52.388;13.390;2024-01-25T07:20:11;101195.53;;;4.87;100.00
36092;BME280;22147;52.388;13.390;2024-01-25T07:22:41;101220.84;;;4.84;100.00
36092;BME280;22147;52.388;13.390;2024-01-25T07:25:08;101234.03;;;4.82;100.00
36092;BME280;22147;52.388;13.390;2024-01-25T07:27:38;101233.22;;;4.86;100.00
36092;BME280;22147;52.388;13.390;2024-01-25T07:30:09;101232.66;;;4.89;100.00
36092;BME280;22147;52.388;13.390;2024-01-25T07:32:39;101241.72;;;4.95;100.00
36092;BME280;22147;52.388;13.390;2024-01-25T07:35:12;101236.25;;;4.90;100.00
36092;BME280;22147;52.388;13.390;2024-01-25T07:37:41;101244.78;;;4.78;100.00
36092;BME280;22147;52.388;13.390;2024-01-25T07:40:12;101246.72;;;4.78;100.00
36092;BME280;22147;52.388;13.390;2024-01-25T07:42:42;101250.84;;;4.75;100.00
36092;BME280;22147;52.388;13.390;2024-01-25T07:45:12;101251.94;;;4.84;100.00
36092;BME280;22147;52.388;13.390;2024-01-25T07:47:42;101251.94;;;4.84;100.00
36092;BME280;22147;52.388;13.390;2024-01-25T07:50:13;101257.44;;;4.95;100.00
36092;BME280;22147;52.388;13.390;2024-01-25T07:52:43;101254.41;;;4.96;100.00
36092;BME280;22147;52.388;13.390;2024-01-25T07:55:13;101264.31;;;4.92;100.00
36092;BME280;22147;52.388;13.390;2024-01-25T07:57:43;101258.53;;;4.83;100.00
36092;BME280;22147;52.388;13.390;2024-01-25T08:00:14;101268.47;;;4.89;100.00
36092;BME280;22147;52.388;13.390;2024-01-25T08:02:44;101273.41;;;4.87;100.00
36092;BME280;22147;52.388;13.390;2024-01-25T08:05:14;101281.94;;;4.86;100.00
36092;BME280;22147;52.388;13.390;2024-01-25T08:07:45;101282.78;;;4.81;100.00
36092;BME280;22147;52.388;13.390;2024-01-25T08:10:15;101288.81;;;4.78;100.00
36092;BME280;22147;52.388;13.390;2024-01-25T08:12:46;101292.69;;;4.77;100.00
36092;BME280;22147;52.388;13.390;2024-01-25T08:15:28;101282.50;;;4.83;100.00
36092;BME280;22147;52.388;13.390;2024-01-25T08:17:58;101302.59;;;4.83;100.00
36092;BME280;22147;52.388;13.390;2024-01-25T08:20:28;101301.19;;;4.86;100.00
36092;BME280;22147;52.388;13.390;2024-01-25T08:22:59;101303.41;;;4.94;100.00
36092;BME280;22147;52.388;13.390;2024-01-25T08:25:29;101305.59;;;4.92;100.00
36092;BME280;22147;52.388;13.390;2024-01-25T08:27:59;101315.25;;;4.89;100.00
36092;BME280;22147;52.388;13.390;2024-01-25T08:30:30;101323.50;;;4.89;100.00
36092;BME280;22147;52.388;13.390;2024-01-25T08:33:00;101321.84;;;4.94;100.00
36092;BME280;22147;52.388;13.390;2024-01-25T08:35:30;101325.72;;;4.98;100.00
36092;BME280;22147;52.388;13.390;2024-01-25T08:38:01;101331.78;;;5.00;100.00
36092;BME280;22147;52.388;13.390;2024-01-25T08:40:31;101331.19;;;5.03;100.00
36092;BME280;22147;52.388;13.390;2024-01-25T08:43:00;101336.16;;;5.01;100.00
36092;BME280;22147;52.388;13.390;2024-01-25T08:45:30;101336.16;;;5.06;100.00
36092;BME280;22147;52.388;13.390;2024-01-25T08:48:00;101341.09;;;4.99;100.00
36092;BME280;22147;52.388;13.390;2024-01-25T08:50:31;101340.81;;;5.05;100.00
36092;BME280;22147;52.388;13.390;2024-01-25T08:53:02;101344.69;;;5.04;100.00
36092;BME280;22147;52.388;13.390;2024-01-25T08:55:32;101346.34;;;5.16;100.00
36092;BME280;22147;52.388;13.390;2024-01-25T08:58:02;101350.19;;;5.09;100.00
36092;BME280;22147;52.388;13.390;2024-01-25T09:00:33;101346.06;;;5.12;100.00
36092;BME280;22147;52.388;13.390;2024-01-25T09:03:03;101340.28;;;5.08;100.00
36092;BME280;22147;52.388;13.390;2024-01-25T09:05:34;101356.25;;;5.17;100.00
36092;BME280;22147;52.388;13.390;2024-01-25T09:08:10;101350.19;;;5.09;100.00
36092;BME280;22147;52.388;13.390;2024-01-25T09:10:42;101357.91;;;5.18;100.00
36092;BME280;22147;52.388;13.390;2024-01-25T09:13:14;101363.41;;;5.18;100.00
36092;BME280;22147;52.388;13.390;2024-01-25T09:15:45;101358.72;;;5.18;100.00
36092;BME280;22147;52.388;13.390;2024-01-25T09:18:17;101359.28;;;5.10;100.00
36092;BME280;22147;52.388;13.390;2024-01-25T09:20:47;101359.00;;;5.17;100.00
36092;BME280;22147;52.388;13.390;2024-01-25T09:23:18;101373.59;;;5.22;100.00
36092;BME280;22147;52.388;13.390;2024-01-25T09:25:49;101383.78;;;5.27;100.00
36092;BME280;22147;52.388;13.390;2024-01-25T09:28:22;101378.53;;;5.20;100.00
36092;BME280;22147;52.388;13.390;2024-01-25T09:30:53;101376.06;;;5.24;100.00
36092;BME280;22147;52.388;13.390;2024-01-25T09:33:23;101388.75;;;5.40;100.00
36092;BME280;22147;52.388;13.390;2024-01-25T09:35:54;101390.09;;;5.43;100.00
36092;BME280;22147;52.388;13.390;2024-01-25T09:38:25;101390.94;;;5.38;100.00
36092;BME280;22147;52.388;13.390;2024-01-25T09:40:56;101384.31;;;5.39;100.00
36092;BME280;22147;52.388;13.390;2024-01-25T09:43:27;101401.41;;;5.31;100.00
36092;BME280;22147;52.388;13.390;2024-01-25T09:45:55;101405.25;;;5.40;100.00
36092;BME280;22147;52.388;13.390;2024-01-25T09:48:24;101412.97;;;5.33;100.00
36092;BME280;22147;52.388;13.390;2024-01-25T09:50:55;101414.91;;;5.38;100.00
36092;BME280;22147;52.388;13.390;2024-01-25T09:53:24;101413.25;;;5.37;100.00
36092;BME280;22147;52.388;13.390;2024-01-25T09:56:08;101411.31;;;5.32;100.00
36092;BME280;22147;52.388;13.390;2024-01-25T09:58:41;101422.06;;;5.39;100.00
36092;BME280;22147;52.388;13.390;2024-01-25T10:01:14;101422.34;;;5.37;100.00
36092;BME280;22147;52.388;13.390;2024-01-25T10:03:45;101425.66;;;5.34;100.00
36092;BME280;22147;52.388;13.390;2024-01-25T10:06:17;101422.91;;;5.34;100.00
36092;BME280;22147;52.388;13.390;2024-01-25T10:08:49;101427.03;;;5.32;100.00
36092;BME280;22147;52.388;13.390;2024-01-25T10:11:19;101421.81;;;5.25;100.00
36092;BME280;22147;52.388;13.390;2024-01-25T10:13:50;101426.75;;;5.33;100.00
36092;BME280;22147;52.388;13.390;2024-01-25T10:16:20;101425.66;;;5.34;100.00
36092;BME280;22147;52.388;13.390;2024-01-25T10:18:51;101420.44;;;5.27;100.00
36092;BME280;22147;52.388;13.390;2024-01-25T10:21:22;101427.31;;;5.30;100.00
36092;BME280;22147;52.388;13.390;2024-01-25T10:23:50;101433.38;;;5.32;100.00
36092;BME280;22147;52.388;13.390;2024-01-25T10:26:22;101433.09;;;5.39;100.00
36092;BME280;22147;52.388;13.390;2024-01-25T10:28:52;101432.81;;;5.45;100.00
36092;BME280;22147;52.388;13.390;2024-01-25T10:31:32;101433.09;;;5.49;100.00
36092;BME280;22147;52.388;13.390;2024-01-25T10:34:11;101434.72;;;5.55;100.00
36092;BME280;22147;52.388;13.390;2024-01-25T10:36:44;101435.00;;;5.64;99.04
36092;BME280;22147;52.388;13.390;2024-01-25T10:39:17;101430.56;;;5.63;99.59
36092;BME280;22147;52.388;13.390;2024-01-25T10:41:49;101429.47;;;5.59;100.00
36092;BME280;22147;52.388;13.390;2024-01-25T10:44:22;101434.44;;;5.62;98.81
36092;BME280;22147;52.388;13.390;2024-01-25T10:46:52;101449.31;;;5.66;99.64
36092;BME280;22147;52.388;13.390;2024-01-25T10:49:26;101447.38;;;5.66;99.63
36092;BME280;22147;52.388;13.390;2024-01-25T10:51:58;101448.75;;;5.74;99.53
36092;BME280;22147;52.388;13.390;2024-01-25T10:54:29;101449.84;;;5.73;99.21
36092;BME280;22147;52.388;13.390;2024-01-25T10:57:00;101461.44;;;5.75;99.21
36092;BME280;22147;52.388;13.390;2024-01-25T10:59:30;101449.03;;;5.72;100.00
36092;BME280;22147;52.388;13.390;2024-01-25T11:02:01;101450.72;;;5.74;98.04
36092;BME280;22147;52.388;13.390;2024-01-25T11:04:32;101449.56;;;5.80;98.73
36092;BME280;22147;52.388;13.390;2024-01-25T11:07:09;101450.69;;;5.79;99.54
36092;BME280;22147;52.388;13.390;2024-01-25T11:09:40;101454.28;;;5.84;97.41
36092;BME280;22147;52.388;13.390;2024-01-25T11:12:12;101462.50;;;5.89;96.59
36092;BME280;22147;52.388;13.390;2024-01-25T11:14:45;101462.78;;;5.88;96.98
36092;BME280;22147;52.388;13.390;2024-01-25T11:17:19;101460.34;;;5.76;98.34
36092;BME280;22147;52.388;13.390;2024-01-25T11:19:51;101458.66;;;5.85;97.90
36092;BME280;22147;52.388;13.390;2024-01-25T11:22:19;101450.09;;;5.92;97.50
36092;BME280;22147;52.388;13.390;2024-01-25T11:24:47;101463.88;;;5.92;95.77
36092;BME280;22147;52.388;13.390;2024-01-25T11:27:19;101474.38;;;5.80;96.17
36092;BME280;22147;52.388;13.390;2024-01-25T11:29:48;101467.75;;;5.91;96.08
36092;BME280;22147;52.388;13.390;2024-01-25T11:32:15;101468.03;;;5.89;95.70
36092;BME280;22147;52.388;13.390;2024-01-25T11:34:44;101463.34;;;6.00;93.13
36092;BME280;22147;52.388;13.390;2024-01-25T11:37:12;101476.88;;;6.02;94.30
36092;BME280;22147;52.388;13.390;2024-01-25T11:39:43;101477.94;;;6.11;93.01
36092;BME280;22147;52.388;13.390;2024-01-25T11:42:13;101471.63;;;6.05;90.39
36092;BME280;22147;52.388;13.390;2024-01-25T11:44:44;101487.59;;;5.93;90.84
36092;BME280;22147;52.388;13.390;2024-01-25T11:47:14;101475.75;;;6.03;89.21
36092;BME280;22147;52.388;13.390;2024-01-25T11:49:44;101484.31;;;5.91;88.75
36092;BME280;22147;52.388;13.390;2024-01-25T11:52:14;101477.41;;;5.99;88.13
36092;BME280;22147;52.388;13.390;2024-01-25T11:54:45;101484.84;;;5.98;89.03
36092;BME280;22147;52.388;13.390;2024-01-25T11:57:16;101485.69;;;5.99;89.84
36092;BME280;22147;52.388;13.390;2024-01-25T11:59:46;101492.00;;;5.94;91.01
36092;BME280;22147;52.388;13.390;2024-01-25T12:02:17;101506.34;;;5.91;91.91
36092;BME280;22147;52.388;13.390;2024-01-25T12:04:47;101494.53;;;5.96;92.50
36092;BME280;22147;52.388;13.390;2024-01-25T12:07:18;101497.56;;;5.99;91.40
36092;BME280;22147;52.388;13.390;2024-01-25T12:10:03;101488.41;;;6.09;90.89
36092;BME280;22147;52.388;13.390;2024-01-25T12:12:36;101496.41;;;6.10;89.04
36092;BME280;22147;52.388;13.390;2024-01-25T12:15:07;101495.84;;;6.14;87.84
36092;BME280;22147;52.388;13.390;2024-01-25T12:17:35;101498.03;;;6.22;86.40
36092;BME280;22147;52.388;13.390;2024-01-25T12:20:08;101496.94;;;6.33;86.50
36092;BME280;22147;52.388;13.390;2024-01-25T12:22:42;101476.75;;;6.38;85.54
36092;BME280;22147;52.388;13.390;2024-01-25T12:25:14;101501.03;;;6.36;85.68
36092;BME280;22147;52.388;13.390;2024-01-25T12:27:44;101485.03;;;6.38;85.03
36092;BME280;22147;52.388;13.390;2024-01-25T12:30:16;101490.00;;;6.30;84.95
36092;BME280;22147;52.388;13.390;2024-01-25T12:32:48;101498.91;;;6.12;85.69
36092;BME280;22147;52.388;13.390;2024-01-25T12:35:19;101509.38;;;6.15;86.04
36092;BME280;22147;52.388;13.390;2024-01-25T12:37:48;101487.84;;;6.22;86.71
36092;BME280;22147;52.388;13.390;2024-01-25T12:40:19;101491.72;;;6.16;86.69
36092;BME280;22147;52.388;13.390;2024-01-25T12:42:49;101492.53;;;6.22;85.87
36092;BME280;22147;52.388;13.390;2024-01-25T12:45:19;101490.34;;;6.19;86.52
36092;BME280;22147;52.388;13.390;2024-01-25T12:47:47;101486.78;;;6.08;87.80
36092;BME280;22147;52.388;13.390;2024-01-25T12:50:16;101484.84;;;6.08;87.30
36092;BME280;22147;52.388;13.390;2024-01-25T12:52:45;101492.28;;;6.03;87.90
36092;BME280;22147;52.388;13.390;2024-01-25T12:55:15;101493.13;;;6.03;87.44
36092;BME280;22147;52.388;13.390;2024-01-25T12:57:44;101493.41;;;6.02;88.12